createdAt,value
2024-05-09T00:00:40.825Z,70.88
2024-05-09T00:03:10.033Z,70.83
2024-05-09T00:05:38.998Z,70.51
2024-05-09T00:08:06.717Z,69.52
2024-05-09T00:10:37.360Z,69.88
2024-05-09T00:13:07.061Z,69.31
2024-05-09T00:15:35.312Z,70.32
2024-05-09T00:18:03.647Z,71.35
2024-05-09T00:20:38.584Z,71.49
2024-05-09T00:23:09.001Z,71.48
2024-05-09T00:25:36.964Z,72.20
2024-05-09T00:28:04.011Z,71.74
2024-05-09T00:30:34.711Z,71.74
2024-05-09T00:33:08.363Z,71.81
2024-05-09T00:35:36.814Z,71.48
2024-05-09T00:38:04.586Z,71.59
2024-05-09T00:40:43.226Z,72.55
2024-05-09T00:43:12.273Z,72.76
2024-05-09T00:45:40.235Z,72.84
2024-05-09T00:48:09.515Z,73.30
2024-05-09T00:50:42.007Z,73.17
2024-05-09T00:53:14.216Z,71.43
2024-05-09T00:55:42.181Z,71.92
2024-05-09T00:58:12.333Z,71.48
2024-05-09T01:00:41.539Z,70.71
2024-05-09T01:03:11.796Z,71.22
2024-05-09T01:05:41.044Z,71.89
2024-05-09T01:08:10.097Z,72.64
2024-05-09T01:10:38.107Z,72.35
2024-05-09T01:13:05.802Z,72.42
2024-05-09T01:15:34.339Z,71.83
2024-05-09T01:18:04.271Z,72.77
2024-05-09T01:20:39.882Z,72.89
2024-05-09T01:23:10.370Z,72.22
2024-05-09T01:25:37.756Z,72.48
2024-05-09T01:28:05.064Z,74.41
2024-05-09T01:30:35.406Z,73.99
2024-05-09T01:33:09.619Z,73.33
2024-05-09T01:35:39.259Z,73.25
2024-05-09T01:38:07.383Z,72.33
2024-05-09T01:40:38.564Z,74.25
2024-05-09T01:43:11.456Z,74.41
2024-05-09T01:45:40.052Z,75.28
2024-05-09T01:48:08.573Z,74.02
2024-05-09T01:50:39.982Z,74.00
2024-05-09T01:53:11.228Z,73.67
2024-05-09T01:55:38.822Z,73.83
2024-05-09T01:58:05.706Z,74.21
2024-05-09T02:00:39.263Z,73.50
2024-05-09T02:03:12.323Z,74.05
2024-05-09T02:05:42.835Z,74.25
2024-05-09T02:08:17.603Z,74.43
2024-05-09T02:10:45.884Z,74.43
2024-05-09T02:13:16.639Z,74.46
2024-05-09T02:15:43.938Z,74.87
2024-05-09T02:18:11.730Z,74.76
2024-05-09T02:20:40.801Z,74.61
2024-05-09T02:23:09.306Z,74.52
2024-05-09T02:25:36.390Z,73.96
2024-05-09T02:28:03.379Z,75.08
2024-05-09T02:30:38.752Z,74.73
2024-05-09T02:33:10.529Z,74.95
2024-05-09T02:35:39.638Z,74.55
2024-05-09T02:38:06.773Z,74.03
2024-05-09T02:40:37.659Z,73.81
2024-05-09T02:43:07.532Z,73.88
2024-05-09T02:45:34.669Z,74.92
2024-05-09T02:48:02.237Z,74.40
2024-05-09T02:50:36.733Z,74.59
2024-05-09T02:53:11.200Z,74.19
2024-05-09T02:55:38.724Z,74.25
2024-05-09T02:58:09.142Z,74.61
2024-05-09T03:00:40.297Z,74.44
2024-05-09T03:03:11.646Z,74.07
2024-05-09T03:05:41.806Z,74.21
2024-05-09T03:08:09.431Z,74.38
2024-05-09T03:10:38.574Z,74.68
2024-05-09T03:13:11.506Z,74.91
2024-05-09T03:15:38.646Z,75.16
2024-05-09T03:18:06.751Z,74.86
2024-05-09T03:20:35.844Z,75.63
2024-05-09T03:23:05.386Z,75.21
2024-05-09T03:25:33.220Z,75.80
2024-05-09T03:28:00.182Z,76.23
2024-05-09T03:30:38.968Z,75.98
2024-05-09T03:33:19.956Z,76.30
2024-05-09T03:35:48.967Z,76.52
2024-05-09T03:38:16.569Z,75.96
2024-05-09T03:40:50.607Z,74.67
2024-05-09T03:43:19.115Z,75.44
2024-05-09T03:45:48.894Z,74.72
2024-05-09T03:48:16.200Z,75.00
2024-05-09T03:50:43.255Z,74.69
2024-05-09T03:53:11.690Z,74.50
2024-05-09T03:55:39.248Z,74.33
2024-05-09T03:58:08.148Z,74.27
2024-05-09T04:00:38.807Z,74.33
2024-05-09T04:03:10.156Z,73.80
2024-05-09T04:05:40.977Z,74.36
2024-05-09T04:08:09.550Z,74.34
2024-05-09T04:10:36.672Z,74.70
2024-05-09T04:13:04.319Z,73.80
2024-05-09T04:15:31.863Z,73.24
2024-05-09T04:17:59.332Z,73.87
2024-05-09T04:22:56.293Z,73.96
2024-05-09T04:25:23.117Z,72.59
2024-05-09T04:27:49.932Z,73.29
2024-05-09T04:30:25.513Z,74.00
2024-05-09T04:32:57.924Z,73.79
2024-05-09T04:35:24.984Z,73.43
2024-05-09T04:37:51.907Z,72.10
2024-05-09T04:40:27.806Z,72.25
2024-05-09T04:42:59.724Z,73.29
2024-05-09T04:45:26.658Z,72.27
2024-05-09T04:47:54.841Z,71.16
2024-05-09T04:50:30.013Z,71.90
2024-05-09T04:53:03.260Z,71.79
2024-05-09T04:55:30.509Z,70.72
2024-05-09T04:57:57.660Z,68.98
2024-05-09T05:00:32.602Z,68.95
2024-05-09T05:03:15.500Z,68.97
2024-05-09T05:05:45.212Z,69.66
2024-05-09T05:08:17.496Z,69.46
2024-05-09T05:10:46.657Z,68.35
2024-05-09T05:13:20.918Z,67.61
2024-05-09T05:15:56.071Z,68.62
2024-05-09T05:18:24.374Z,68.21
2024-05-09T05:20:51.698Z,68.51
2024-05-09T05:23:20.443Z,68.54
2024-05-09T05:25:48.997Z,67.82
2024-05-09T05:28:17.213Z,67.90
2024-05-09T05:30:44.835Z,67.88
2024-05-09T05:33:14.271Z,67.52
2024-05-09T05:35:42.299Z,67.93
2024-05-09T05:38:10.263Z,67.00
2024-05-09T05:40:38.942Z,66.96
2024-05-09T05:43:11.251Z,67.68
2024-05-09T05:45:39.267Z,67.08
2024-05-09T05:48:07.683Z,66.40
2024-05-09T05:50:37.524Z,65.70
2024-05-09T05:53:07.642Z,67.06
2024-05-09T05:55:36.234Z,66.99
2024-05-09T05:58:03.448Z,66.63
2024-05-09T06:00:38.068Z,66.32
2024-05-09T06:03:08.711Z,65.70
2024-05-09T06:05:37.332Z,66.40
2024-05-09T06:08:04.935Z,66.70
2024-05-09T06:10:38.112Z,66.36
2024-05-09T06:13:07.856Z,65.01
2024-05-09T06:15:35.002Z,66.28
2024-05-09T06:18:02.350Z,64.31
2024-05-09T06:20:35.905Z,64.94
2024-05-09T06:23:06.788Z,63.66
2024-05-09T06:25:34.794Z,63.51
2024-05-09T06:28:02.572Z,63.19
2024-05-09T06:30:37.224Z,62.91
2024-05-09T06:33:09.011Z,62.57
2024-05-09T06:35:37.278Z,62.83
2024-05-09T06:38:05.048Z,63.40
2024-05-09T06:40:38.048Z,63.28
2024-05-09T06:43:18.512Z,63.46
2024-05-09T06:45:53.105Z,61.26
2024-05-09T06:48:22.102Z,61.54
2024-05-09T06:50:50.588Z,61.77
2024-05-09T06:53:22.047Z,61.95
2024-05-09T06:55:49.414Z,62.87
2024-05-09T06:58:16.408Z,59.03
2024-05-09T07:00:43.462Z,59.16
2024-05-09T07:03:13.439Z,57.48
2024-05-09T07:05:43.068Z,58.46
2024-05-09T07:08:10.802Z,60.29
2024-05-09T07:10:38.493Z,60.59
2024-05-09T07:13:12.784Z,61.46
2024-05-09T07:15:40.423Z,58.84
2024-05-09T07:18:17.651Z,61.70
2024-05-09T07:20:46.717Z,59.14
2024-05-09T07:23:14.289Z,60.66
2024-05-09T07:25:42.082Z,59.32
2024-05-09T07:28:19.901Z,57.61
2024-05-09T07:30:47.567Z,57.34
2024-05-09T07:33:23.614Z,56.66
2024-05-09T07:35:52.257Z,57.08
2024-05-09T07:38:19.456Z,55.32
2024-05-09T07:40:46.773Z,54.38
2024-05-09T07:43:15.012Z,55.32
2024-05-09T07:45:51.240Z,56.63
2024-05-09T07:52:38.744Z,54.94
2024-05-09T07:53:49.495Z,55.16
2024-05-09T07:56:22.171Z,55.96
2024-05-09T07:58:52.114Z,54.01
2024-05-09T08:01:20.228Z,54.21
2024-05-09T08:03:47.692Z,52.72
2024-05-09T08:06:14.928Z,53.73
2024-05-09T08:08:42.032Z,52.94
2024-05-09T08:11:09.085Z,55.99
2024-05-09T08:13:36.158Z,52.39
2024-05-09T08:16:03.032Z,50.92
2024-05-09T08:18:30.388Z,52.30
2024-05-09T08:20:58.256Z,51.31
2024-05-09T08:23:25.349Z,51.79
2024-05-09T08:25:55.039Z,50.80
2024-05-09T08:28:21.975Z,49.34
2024-05-09T08:30:49.065Z,48.95
2024-05-09T08:33:16.217Z,51.52
2024-05-09T08:35:43.351Z,49.81
2024-05-09T08:38:10.303Z,51.17
2024-05-09T08:40:38.291Z,48.90
2024-05-09T08:43:11.286Z,48.34
2024-05-09T08:45:44.497Z,50.98
2024-05-09T08:48:15.105Z,49.95
2024-05-09T08:50:43.952Z,46.72
2024-05-09T08:53:12.236Z,46.15
2024-05-09T08:55:42.804Z,44.52
2024-05-09T08:58:16.180Z,43.06
2024-05-09T09:00:45.313Z,41.68
2024-05-09T09:03:18.690Z,45.90
2024-05-09T09:06:06.884Z,43.29
2024-05-09T09:08:33.794Z,44.83
2024-05-09T09:11:00.976Z,45.59
2024-05-09T09:13:28.322Z,45.08
2024-05-09T09:15:59.134Z,40.94
2024-05-09T09:18:27.549Z,42.84
2024-05-09T09:20:55.230Z,42.48
2024-05-09T09:23:22.649Z,43.83
2024-05-09T09:25:50.185Z,44.19
2024-05-09T09:28:17.303Z,42.84
2024-05-09T09:30:44.452Z,42.91
2024-05-09T09:33:12.403Z,43.20
2024-05-09T09:35:40.762Z,44.79
2024-05-09T09:38:10.615Z,45.58
2024-05-09T09:40:46.684Z,48.17
2024-05-09T09:43:21.167Z,45.24
2024-05-09T09:45:53.604Z,41.07
2024-05-09T09:48:22.903Z,42.37
2024-05-09T09:50:52.402Z,41.29
2024-05-09T09:53:23.508Z,41.81
2024-05-09T09:55:52.453Z,41.61
2024-05-09T09:58:19.759Z,45.28
2024-05-09T10:00:47.444Z,42.72
2024-05-09T10:03:14.562Z,40.75
2024-05-09T10:05:45.098Z,43.49
2024-05-09T10:08:15.200Z,40.36
2024-05-09T10:10:47.130Z,42.84
2024-05-09T10:13:14.560Z,43.00
2024-05-09T10:15:54.633Z,43.83
2024-05-09T10:18:28.269Z,47.02
2024-05-09T10:20:57.894Z,44.68
2024-05-09T10:23:56.244Z,44.50
2024-05-09T10:26:39.617Z,46.41
2024-05-09T10:29:17.152Z,46.23
2024-05-09T10:31:46.183Z,44.60
2024-05-09T10:34:20.946Z,44.75
2024-05-09T10:36:53.599Z,44.03
2024-05-09T10:39:21.863Z,44.19
2024-05-09T10:41:49.700Z,44.25
2024-05-09T10:44:17.637Z,43.18
2024-05-09T10:46:46.276Z,40.05
2024-05-09T10:49:14.532Z,42.35
2024-05-09T10:51:44.541Z,42.39
2024-05-09T10:54:11.694Z,44.44
2024-05-09T10:56:38.698Z,44.05
2024-05-09T10:59:05.793Z,42.05
2024-05-09T11:01:32.824Z,42.15
2024-05-09T11:04:00.227Z,44.70
2024-05-09T11:06:27.410Z,43.49
2024-05-09T11:08:54.727Z,43.28
2024-05-09T11:11:21.989Z,44.49
2024-05-09T11:13:49.233Z,41.06
2024-05-09T11:16:20.040Z,42.96
2024-05-09T11:18:56.166Z,40.99
2024-05-09T11:21:24.645Z,43.68
2024-05-09T11:23:52.482Z,44.48
2024-05-09T11:26:21.721Z,44.92
2024-05-09T11:28:50.912Z,41.31
2024-05-09T11:31:18.591Z,42.84
2024-05-09T11:33:46.129Z,44.23
2024-05-09T11:36:13.734Z,44.25
2024-05-09T11:38:41.495Z,41.55
2024-05-09T11:41:08.915Z,40.46
2024-05-09T11:43:35.709Z,40.21
2024-05-09T11:46:03.875Z,39.85
2024-05-09T11:48:32.279Z,42.77
2024-05-09T11:50:59.625Z,43.26
2024-05-09T11:53:26.444Z,42.22
2024-05-09T11:55:53.523Z,41.87
2024-05-09T11:58:23.064Z,43.75
2024-05-09T12:00:50.322Z,41.63
2024-05-09T12:03:17.374Z,41.97
2024-05-09T12:05:44.475Z,41.76
2024-05-09T12:08:11.960Z,42.12
2024-05-09T12:10:38.933Z,42.32
2024-05-09T12:13:07.221Z,43.54
2024-05-09T12:15:38.266Z,43.99
2024-05-09T12:18:07.323Z,41.31
2024-05-09T12:20:38.508Z,45.77
2024-05-09T12:23:09.329Z,42.61
2024-05-09T12:25:38.371Z,42.93
2024-05-09T12:28:06.477Z,43.06
2024-05-09T12:30:38.156Z,41.27
2024-05-09T12:33:12.363Z,41.64
2024-05-09T12:35:40.598Z,42.83
2024-05-09T12:38:07.902Z,41.02
2024-05-09T12:40:37.891Z,41.83
2024-05-09T12:43:10.289Z,40.29
2024-05-09T12:45:39.070Z,42.39
2024-05-09T12:48:08.494Z,42.21
2024-05-09T12:50:36.857Z,41.27
2024-05-09T12:53:05.029Z,41.85
2024-05-09T12:55:40.177Z,41.57
2024-05-09T12:58:15.225Z,43.72
2024-05-09T13:00:42.555Z,44.89
2024-05-09T13:03:09.717Z,44.26
2024-05-09T13:05:37.171Z,45.91
2024-05-09T13:08:04.599Z,44.35
2024-05-09T13:10:33.183Z,45.60
2024-05-09T13:13:01.994Z,43.65
2024-05-09T13:15:35.113Z,44.48
2024-05-09T13:18:03.689Z,44.42
2024-05-09T13:20:34.131Z,43.72
2024-05-09T13:23:08.091Z,44.34
2024-05-09T13:25:36.433Z,44.08
2024-05-09T13:28:04.874Z,43.93
2024-05-09T13:30:39.466Z,43.04
2024-05-09T13:33:13.158Z,41.36
2024-05-09T13:35:47.578Z,41.39
2024-05-09T13:38:18.766Z,40.36
2024-05-09T13:40:46.166Z,41.53
2024-05-09T13:43:13.677Z,41.62
2024-05-09T13:45:40.856Z,42.55
2024-05-09T13:48:09.786Z,40.98
2024-05-09T13:50:37.489Z,41.13
2024-05-09T13:53:06.714Z,39.93
2024-05-09T13:55:35.613Z,37.60
2024-05-09T13:58:03.193Z,40.56
2024-05-09T14:00:42.180Z,41.11
2024-05-09T14:03:14.446Z,40.87
2024-05-09T14:05:41.955Z,40.37
2024-05-09T14:08:09.395Z,38.43
2024-05-09T14:10:43.503Z,41.67
2024-05-09T14:13:11.161Z,40.29
2024-05-09T14:15:38.183Z,42.72
2024-05-09T14:18:06.603Z,40.18
2024-05-09T14:20:34.208Z,41.07
2024-05-09T14:23:01.207Z,40.50
2024-05-09T14:25:29.781Z,42.57
2024-05-09T14:28:00.297Z,42.03
2024-05-09T14:30:34.795Z,41.06
2024-05-09T14:33:06.528Z,40.39
2024-05-09T14:35:34.474Z,40.50
2024-05-09T14:38:01.489Z,39.82
2024-05-09T14:40:39.722Z,40.31
2024-05-09T14:43:14.768Z,38.38
2024-05-09T14:45:43.295Z,40.08
2024-05-09T14:48:11.757Z,40.96
2024-05-09T14:50:40.489Z,40.89
2024-05-09T14:53:09.135Z,39.64
2024-05-09T14:55:37.727Z,41.01
2024-05-09T14:58:09.225Z,41.30
2024-05-09T15:00:44.872Z,39.85
2024-05-09T15:03:15.413Z,40.31
2024-05-09T15:05:42.691Z,39.11
2024-05-09T15:08:09.746Z,39.09
2024-05-09T15:10:37.559Z,40.47
2024-05-09T15:13:07.218Z,38.30
2024-05-09T15:15:35.817Z,39.47
2024-05-09T15:18:04.345Z,39.06
2024-05-09T15:20:35.553Z,38.75
2024-05-09T15:23:05.167Z,38.06
2024-05-09T15:25:33.773Z,38.96
2024-05-09T15:28:00.962Z,37.89
2024-05-09T15:30:31.297Z,37.48
2024-05-09T15:33:01.114Z,37.90
2024-05-09T15:35:28.266Z,38.48
2024-05-09T15:37:55.574Z,38.15
2024-05-09T15:40:31.459Z,37.31
2024-05-09T15:43:05.839Z,37.76
2024-05-09T15:45:33.046Z,37.72
2024-05-09T15:48:00.551Z,36.75
2024-05-09T15:50:36.290Z,38.41
2024-05-09T15:53:07.922Z,38.32
2024-05-09T15:55:35.867Z,38.41
2024-05-09T15:58:04.053Z,38.23
2024-05-09T16:03:01.549Z,40.34
2024-05-09T16:05:28.610Z,39.78
2024-05-09T16:07:55.616Z,39.01
2024-05-09T16:10:26.070Z,37.79
2024-05-09T16:12:59.343Z,39.37
2024-05-09T16:15:26.264Z,38.74
2024-05-09T16:17:54.076Z,40.02
2024-05-09T16:20:33.430Z,39.67
2024-05-09T16:23:05.608Z,39.90
2024-05-09T16:25:32.451Z,38.47
2024-05-09T16:27:59.571Z,38.40
2024-05-09T16:30:33.736Z,38.47
2024-05-09T16:33:03.864Z,38.36
2024-05-09T16:35:31.532Z,38.59
2024-05-09T16:37:58.347Z,40.41
2024-05-09T16:40:34.402Z,39.05
2024-05-09T16:43:06.342Z,38.89
2024-05-09T16:45:33.719Z,40.91
2024-05-09T16:48:02.089Z,38.40
2024-05-09T16:50:33.469Z,38.85
2024-05-09T16:53:03.615Z,38.02
2024-05-09T16:55:31.149Z,38.68
2024-05-09T16:57:58.567Z,40.99
2024-05-09T17:00:35.662Z,40.47
2024-05-09T17:03:09.896Z,38.49
2024-05-09T17:05:37.643Z,39.05
2024-05-09T17:08:05.166Z,38.82
2024-05-09T17:10:34.267Z,39.32
2024-05-09T17:13:04.440Z,39.05
2024-05-09T17:15:32.936Z,39.47
2024-05-09T17:18:00.240Z,38.61
2024-05-09T17:20:33.047Z,40.09
2024-05-09T17:23:04.183Z,40.17
2024-05-09T17:25:31.435Z,40.37
2024-05-09T17:28:05.203Z,41.21
2024-05-09T17:30:36.443Z,40.97
2024-05-09T17:33:06.513Z,40.01
2024-05-09T17:35:33.634Z,40.35
2024-05-09T17:38:01.812Z,41.77
2024-05-09T17:40:33.634Z,41.58
2024-05-09T17:43:04.288Z,41.72
2024-05-09T17:45:32.233Z,42.51
2024-05-09T17:47:59.968Z,43.86
2024-05-09T17:50:35.041Z,43.31
2024-05-09T17:53:04.880Z,44.20
2024-05-09T17:55:32.126Z,45.15
2024-05-09T17:57:59.268Z,47.25
2024-05-09T18:00:37.479Z,48.94
2024-05-09T18:03:08.745Z,48.66
2024-05-09T18:05:37.220Z,49.62
2024-05-09T18:08:06.063Z,50.10
2024-05-09T18:10:37.418Z,49.92
2024-05-09T18:13:07.482Z,50.24
2024-05-09T18:15:34.947Z,48.52
2024-05-09T18:18:03.192Z,47.58
2024-05-09T18:20:39.862Z,51.55
2024-05-09T18:23:11.604Z,52.31
2024-05-09T18:25:38.710Z,52.50
2024-05-09T18:28:06.977Z,50.70
2024-05-09T18:30:36.316Z,50.86
2024-05-09T18:33:06.457Z,50.39
2024-05-09T18:35:34.953Z,54.54
2024-05-09T18:38:02.134Z,54.35
2024-05-09T18:40:34.255Z,53.91
2024-05-09T18:43:06.721Z,52.94
2024-05-09T18:45:35.538Z,52.83
2024-05-09T18:48:05.411Z,53.53
2024-05-09T18:50:37.271Z,52.81
2024-05-09T18:53:07.032Z,52.76
2024-05-09T18:55:34.050Z,52.71
2024-05-09T18:58:01.270Z,52.77
2024-05-09T19:00:34.629Z,51.93
2024-05-09T19:03:09.427Z,51.63
2024-05-09T19:05:39.187Z,51.39
2024-05-09T19:08:07.705Z,51.20
2024-05-09T19:10:36.020Z,51.50
2024-05-09T19:13:08.480Z,52.22
2024-05-09T19:15:39.518Z,51.64
2024-05-09T19:18:07.474Z,51.68
2024-05-09T19:20:36.340Z,52.14
2024-05-09T19:23:06.191Z,52.32
2024-05-09T19:25:33.528Z,52.84
2024-05-09T19:28:01.291Z,52.47
2024-05-09T19:30:37.580Z,53.09
2024-05-09T19:33:08.907Z,52.68
2024-05-09T19:35:36.400Z,52.84
2024-05-09T19:38:03.903Z,53.46
2024-05-09T19:40:33.534Z,54.37
2024-05-09T19:43:03.023Z,54.59
2024-05-09T19:45:30.856Z,53.91
2024-05-09T19:47:58.024Z,53.89
2024-05-09T19:50:32.843Z,54.09
2024-05-09T19:53:08.424Z,53.77
2024-05-09T19:55:35.397Z,53.43
2024-05-09T19:58:05.360Z,53.38
2024-05-09T20:00:39.539Z,54.34
2024-05-09T20:03:09.297Z,54.27
2024-05-09T20:05:37.284Z,54.17
2024-05-09T20:08:05.444Z,54.68
2024-05-09T20:10:35.076Z,54.48
2024-05-09T20:13:05.789Z,53.97
2024-05-09T20:15:38.243Z,54.15
2024-05-09T20:18:06.730Z,54.07
2024-05-09T20:20:39.960Z,55.43
2024-05-09T20:23:11.526Z,55.27
2024-05-09T20:25:38.762Z,54.65
2024-05-09T20:28:06.778Z,55.62
2024-05-09T20:30:35.424Z,55.41
2024-05-09T20:33:05.206Z,56.08
2024-05-09T20:35:34.176Z,55.63
2024-05-09T20:38:02.820Z,55.51
2024-05-09T20:40:35.055Z,56.22
2024-05-09T20:43:06.017Z,56.10
2024-05-09T20:45:34.131Z,56.84
2024-05-09T20:48:01.760Z,58.19
2024-05-09T20:50:36.934Z,59.31
2024-05-09T20:53:13.941Z,59.10
2024-05-09T20:55:43.392Z,60.27
2024-05-09T20:58:11.095Z,61.50
2024-05-09T21:00:42.489Z,61.29
2024-05-09T21:03:13.055Z,61.48
2024-05-09T21:05:41.347Z,61.36
2024-05-09T21:08:08.956Z,62.19
2024-05-09T21:10:37.108Z,61.64
2024-05-09T21:13:05.848Z,63.13
2024-05-09T21:15:33.862Z,62.44
2024-05-09T21:18:01.034Z,62.42
2024-05-09T21:20:31.495Z,63.36
2024-05-09T21:23:01.324Z,62.30
2024-05-09T21:25:28.796Z,63.21
2024-05-09T21:27:56.047Z,63.12
2024-05-09T21:30:32.444Z,63.47
2024-05-09T21:33:13.292Z,65.41
2024-05-09T21:35:42.428Z,65.68
2024-05-09T21:38:09.711Z,65.96
2024-05-09T21:40:38.210Z,65.47
2024-05-09T21:43:07.316Z,65.81
2024-05-09T21:45:35.289Z,65.37
2024-05-09T21:48:06.561Z,66.68
2024-05-09T21:50:39.924Z,66.05
2024-05-09T21:53:09.817Z,66.59
2024-05-09T21:55:36.824Z,66.61
2024-05-09T21:58:04.378Z,66.70
2024-05-09T22:00:37.035Z,67.02
2024-05-09T22:03:07.999Z,67.52
2024-05-09T22:05:36.444Z,67.73
2024-05-09T22:08:03.962Z,67.62
2024-05-09T22:10:34.824Z,67.78
2024-05-09T22:13:05.312Z,67.50
2024-05-09T22:15:36.422Z,67.95
2024-05-09T22:18:05.274Z,67.59
2024-05-09T22:20:37.333Z,67.96
2024-05-09T22:23:06.660Z,68.05
2024-05-09T22:25:34.115Z,67.82
2024-05-09T22:28:02.706Z,67.68
2024-05-09T22:30:36.164Z,68.79
2024-05-09T22:33:07.862Z,69.75
2024-05-09T22:35:35.290Z,69.46
2024-05-09T22:38:05.838Z,68.65
2024-05-09T22:40:42.722Z,69.28
2024-05-09T22:43:18.447Z,69.35
2024-05-09T22:45:46.535Z,69.14
2024-05-09T22:48:13.936Z,69.09
2024-05-09T22:50:41.741Z,68.31
2024-05-09T22:53:08.834Z,68.62
2024-05-09T22:55:36.438Z,67.73
2024-05-09T22:58:03.700Z,68.96
2024-05-09T23:00:32.651Z,68.64
2024-05-09T23:03:01.819Z,68.24
2024-05-09T23:05:29.840Z,68.86
2024-05-09T23:07:57.010Z,68.68
2024-05-09T23:10:32.158Z,69.15
2024-05-09T23:13:03.903Z,69.50
2024-05-09T23:15:31.155Z,69.73
2024-05-09T23:17:58.679Z,69.82
2024-05-09T23:20:35.955Z,70.05
2024-05-09T23:23:10.545Z,70.17
2024-05-09T23:25:38.591Z,69.96
2024-05-09T23:28:06.219Z,69.34
2024-05-09T23:30:38.090Z,69.52
2024-05-09T23:33:08.498Z,69.65
2024-05-09T23:35:35.711Z,70.28
2024-05-09T23:38:02.932Z,70.10
2024-05-09T23:40:38.274Z,70.70
2024-05-09T23:43:08.735Z,71.27
2024-05-09T23:45:36.149Z,70.80
2024-05-09T23:48:03.706Z,70.60
2024-05-09T23:50:35.097Z,71.04
2024-05-09T23:53:05.605Z,71.18
2024-05-09T23:55:32.993Z,71.31
2024-05-09T23:58:00.171Z,71.76
